Aeroporto :
LOGIN :

Iscrizione | Disclaimer

   EN    FR    IT 

 










Sommario :    VFR   VFR Marginale   IFR   IFR Intensivo   IFR Molto Intensivo
Visibilità : 
Base nubi : 
>= 8 km
>= 3000ft
5 / 8 km
1000 / 3000 ft
1500m / 5 km
500 / 1000 ft
800 / 1500m
200 / 500 ft
< 800m
< 200 ft
Simboli :   Temporali  Nebbia  Neve Forte  Precipitazioni Forti  Vento > 20 kt
SIGMETs :   Varie  Temporali  Ghiacco  Turbolenza  Onda orograficha  Ceneri Vulcaniche







- Altitudine del aeroporto : 122 ft
- Codice IATA : TXL


EDDT - Berlin Tegel Int.

ULTIMO METAR :
  • 162320Z AUTO 00000KT //// R26R/P2000N R26L/P2000N // ///////// 01/M02 Q1024

METARs OBSOLETI :
  • 162250Z 32001KT CAVOK 02/M02 Q1024
  • 162220Z VRB01KT CAVOK 02/M02 Q1024
  • 162150Z 35001KT CAVOK 04/M01 Q1024 NOSIG
  • 162120Z 26003KT CAVOK 05/M01 Q1024 NOSIG
  • 162050Z 26004KT CAVOK 06/M01 Q1024 NOSIG

TAF TAF EDDT
Valido dal 17 a 00 ore il 18 a 00 ore UTC


162300Z 1700/1724 VRB03KT CAVOK
BECMG 1709/1712 14005KT
Nessun NOTAM noto per questo aeroporto.



MetMap, La meteo Aeronautica in un colpo d'occhio ! - Copyright ORBIFLY Dicembre 2007 - Disclaimer

ORBIFLY MET'MAP TEAM :

Programmazione e sviluppo : Alexandra Zaïnal
Concezione e sviluppo : Baudouin d'Aumeries
Co-Programmazione e sviluppo : Marc-Olivier Méhu
Supporto tecnico e logistico : Manuel Goepfert
Aiuto per la traduzione : Arnaldo La Scala

Contatto : metmap@orbifly.com




FONTI E CREDITI :

   NOAA